King, WI (54946)

1:54 PM CDT on September 17, 2014 (GMT -0500)
Woodridge Subdivision/KC9WA | Change Station
CLOSE
Current Station
Personal Weather Station
Location: Waupaca, WI
Elevation: 951 ft
Nearby Weather Stations

Elev 951 ft 44.37 °N, 89.12 °W | Updated 58 seconds ago

Partly Cloudy
Partly Cloudy
72.0 °F
Feels Like 77 °F
N
3.8
Wind Variable Wind from SW
Gusts 6.9 mph

Today
High -- | Low -- °F
--% Chance of Precip.
Yesterday
High -- | Low -- °F
Precip. -- in
6:37 AM 7:03 PM
Waning Crescent, 34% visible
Pressure 29.97 in
Visibility 10.0 miles
Clouds Clear
Heat Index 77 °F
Dew Point 51 °F
Humidity 47%
Rainfall 0.00 in
Snow Depth Not available.
UV 7 out of 12
Pollen 4.20 out of 12
Air Quality Not available.
Flu Activity Not available.
METAR KPCZ 171835Z AUTO 27008KT 250V320 10SM CLR 22/09 A2997 RMK AO2 T02170090

More Conditions Fewer Conditions

Pressure 29.97 in
Visibility 10.0 miles
Clouds Clear
Heat Index 77 °F
Dew Point 51 °F
Humidity 47%
Rainfall 0.00 in
Snow Depth Not available.
UV 7 out of 12
Pollen 4.20 out of 12
Air Quality Not available.
Flu Activity Not available.
METAR KPCZ 171835Z AUTO 27008KT 250V320 10SM CLR 22/09 A2997 RMK AO2 T02170090

More Conditions Fewer Conditions

10-Day Weather Forecast

Almanac

Astronomy

Sep. 17, 2014 Rise Set
Actual Time 6:37 AM CDT 7:03 PM CDT
Civil Twilight 6:08 AM CDT 7:32 PM CDT
Nautical Twilight 5:34 AM CDT 8:06 PM CDT
Astronomical Twilight 4:58 AM CDT 8:41 PM CDT
Moon 12:28 AM CDT 3:22 PM CDT
Length of Visible Light 13h 23m
Length of Day
12h 25m
Tomorrow will be 3m 1s shorter.
Waning Crescent, 34% of the Moon is Illuminated
Today
Waning Crescent
Sep 24
New
Oct 1
First Quarter
Oct 8
Full
Oct 15
Last Quarter

Today's Extremes

State Highs State Lows

Community

WunderPhotos

Upload Photos

1,754,127 photos uploaded!

WunderBlogs® & News

Nearby

Snow Depth

Station Depth Elevation
No new snow has been reported.

Earthquake Activity

City Distance Mag. Time & Date
No recent earthquake activity has been reported nearby.
Minimum magnitude displayed is 2.5.

Coastal Water Temperatures

Place Temperature
No Stations Reporting

Nearby Weather Stations